createdAt,value
2018-02-23T00:01:15.520Z,-1.90
2018-02-23T00:03:44.273Z,-1.90
2018-02-23T00:06:13.044Z,-1.90
2018-02-23T00:08:41.810Z,-2.00
2018-02-23T00:11:10.587Z,-2.00
2018-02-23T00:13:39.356Z,-2.10
2018-02-23T00:16:08.879Z,-2.30
2018-02-23T00:18:37.634Z,-2.30
2018-02-23T00:21:07.165Z,-2.30
2018-02-23T00:23:35.932Z,-2.30
2018-02-23T00:26:05.457Z,-2.20
2018-02-23T00:28:34.219Z,-2.20
2018-02-23T00:31:02.972Z,-2.20
2018-02-23T00:33:31.742Z,-2.20
2018-02-23T00:36:00.509Z,-2.10
2018-02-23T00:38:29.285Z,-2.20
2018-02-23T00:40:58.060Z,-2.10
2018-02-23T00:43:27.895Z,-2.10
2018-02-23T00:45:56.899Z,-2.10
2018-02-23T00:48:25.666Z,-2.20
2018-02-23T00:51:01.163Z,-2.20
2018-02-23T00:53:29.949Z,-2.20
2018-02-23T00:55:58.718Z,-2.40
2018-02-23T00:58:27.783Z,-2.30
2018-02-23T01:00:56.541Z,-2.30
2018-02-23T01:03:25.307Z,-2.40
2018-02-23T01:05:54.066Z,-2.30
2018-02-23T01:08:23.599Z,-2.40
2018-02-23T01:10:52.029Z,-2.40
2018-02-23T01:13:20.797Z,-2.40
2018-02-23T01:15:49.566Z,-2.40
2018-02-23T01:18:18.331Z,-2.50
2018-02-23T01:20:47.094Z,-2.60
2018-02-23T01:23:16.620Z,-2.80
2018-02-23T01:25:45.379Z,-2.90
2018-02-23T01:28:21.469Z,-2.80
2018-02-23T01:30:51.004Z,-2.70
2018-02-23T01:33:19.431Z,-2.70
2018-02-23T01:35:48.184Z,-2.70
2018-02-23T01:38:16.944Z,-2.70
2018-02-23T03:05:43.960Z,-2.60
2018-02-23T03:08:12.717Z,-3.50
2018-02-23T03:10:41.499Z,-3.50
2018-02-23T03:13:10.261Z,-3.40
2018-02-23T03:15:39.041Z,-3.30
2018-02-23T03:18:07.468Z,-3.30
2018-02-23T03:20:36.229Z,-3.30
2018-02-23T03:23:05.747Z,-3.30
2018-02-23T03:25:34.513Z,-3.30
2018-02-23T03:28:03.280Z,-3.30
2018-02-23T03:30:32.821Z,-3.40
2018-02-23T03:33:01.586Z,-3.40
2018-02-23T03:35:31.126Z,-3.60
2018-02-23T03:37:59.883Z,-3.60
2018-02-23T03:40:28.648Z,-3.60
2018-02-23T03:42:57.416Z,-3.50
2018-02-23T03:45:26.179Z,-3.50
2018-02-23T03:47:54.945Z,-3.50
2018-02-23T03:50:23.722Z,-3.50
2018-02-23T03:52:53.249Z,-3.60
2018-02-23T03:55:22.005Z,-3.60
2018-02-23T03:57:51.533Z,-3.70
2018-02-23T04:00:20.291Z,-3.80
2018-02-23T04:02:49.049Z,-3.70
2018-02-23T04:05:17.829Z,-3.60
2018-02-23T04:07:46.584Z,-3.60
2018-02-23T04:10:15.360Z,-3.50
2018-02-23T04:12:44.878Z,-3.40
2018-02-23T04:15:13.640Z,-3.40
2018-02-23T04:17:42.410Z,-3.40
2018-02-23T04:20:11.181Z,-3.40
2018-02-23T04:22:39.949Z,-3.30
2018-02-23T04:25:08.713Z,-3.30
2018-02-23T04:27:38.248Z,-3.50
2018-02-23T04:30:07.008Z,-3.50
2018-02-23T04:32:36.211Z,-3.50
2018-02-23T04:35:05.732Z,-3.40
2018-02-23T04:37:34.509Z,-3.50
2018-02-23T04:40:03.883Z,-3.40
2018-02-23T04:42:32.643Z,-3.40
2018-02-23T04:45:01.407Z,-3.40
2018-02-23T04:47:30.160Z,-3.40
2018-02-23T04:49:59.683Z,-3.50
2018-02-23T04:52:29.220Z,-3.50
2018-02-23T04:54:57.967Z,-3.60
2018-02-23T04:57:27.497Z,-3.70
2018-02-23T04:59:56.266Z,-3.70
2018-02-23T05:02:25.823Z,-3.80
2018-02-23T05:04:54.585Z,-3.80
2018-02-23T05:07:23.352Z,-3.70
2018-02-23T05:09:52.884Z,-3.70
2018-02-23T05:12:21.636Z,-3.70
2018-02-23T05:14:50.397Z,-3.70
2018-02-23T05:17:19.149Z,-3.70
2018-02-23T05:19:47.920Z,-3.80
2018-02-23T05:22:17.251Z,-3.80
2018-02-23T05:24:45.832Z,-3.80
2018-02-23T05:27:14.588Z,-3.90
2018-02-23T05:29:44.121Z,-3.90
2018-02-23T05:32:12.695Z,-3.90
2018-02-23T05:34:41.456Z,-3.90
2018-02-23T05:37:10.982Z,-3.90
2018-02-23T05:39:40.499Z,-3.90
2018-02-23T05:42:09.263Z,-3.90
2018-02-23T05:44:39.327Z,-3.90
2018-02-23T05:47:08.097Z,-3.90
2018-02-23T05:49:36.851Z,-3.90
2018-02-23T05:52:05.619Z,-3.90
2018-02-23T05:54:34.380Z,-3.90
2018-02-23T05:57:02.950Z,-3.90
2018-02-23T05:59:31.707Z,-4.00
2018-02-23T06:02:01.232Z,-4.00
2018-02-23T06:04:29.991Z,-4.00
2018-02-23T06:06:59.303Z,-4.00
2018-02-23T06:09:28.824Z,-4.10
2018-02-23T06:11:58.348Z,-4.20
2018-02-23T06:14:27.120Z,-4.20
2018-02-23T06:16:56.316Z,-4.30
2018-02-23T06:19:31.309Z,-4.30
2018-02-23T06:22:00.261Z,-4.30
2018-02-23T06:24:29.060Z,-4.30
2018-02-23T06:26:57.819Z,-4.40
2018-02-23T06:29:27.356Z,-4.30
2018-02-23T06:31:55.931Z,-4.30
2018-02-23T06:34:24.687Z,-4.40
2018-02-23T06:36:54.251Z,-4.50
2018-02-23T06:39:23.016Z,-4.50
2018-02-23T07:57:50.034Z,-4.40
2018-02-23T08:00:19.204Z,-3.00
2018-02-23T08:02:48.762Z,-3.20
2018-02-23T08:05:17.349Z,-3.30
2018-02-23T08:07:46.115Z,-3.20
2018-02-23T08:10:14.892Z,-3.20
2018-02-23T08:12:43.656Z,-3.20
2018-02-23T08:15:12.240Z,-3.30
2018-02-23T08:17:41.005Z,-3.30
2018-02-23T08:20:09.810Z,-3.20
2018-02-23T08:22:38.594Z,-3.00
2018-02-23T08:25:08.120Z,-2.50
2018-02-23T08:27:36.900Z,-2.50
2018-02-23T08:30:05.685Z,-2.30
2018-02-23T08:32:35.208Z,-2.00
2018-02-23T08:35:03.979Z,-2.00
2018-02-23T08:37:33.511Z,-1.90
2018-02-23T08:40:02.274Z,-1.90
2018-02-23T08:42:31.812Z,-1.50
2018-02-23T08:45:00.576Z,-1.60
2018-02-23T08:47:29.381Z,-1.30
2018-02-23T08:49:58.148Z,-1.30
2018-02-23T08:52:27.677Z,-0.90
2018-02-23T08:54:56.444Z,-0.90
2018-02-23T08:57:25.224Z,-0.80
2018-02-23T08:59:54.756Z,-0.30
2018-02-23T09:02:23.529Z,-0.30
2018-02-23T09:04:52.289Z,0.00
2018-02-23T09:07:21.057Z,0.30
2018-02-23T09:09:49.824Z,0.30
2018-02-23T09:12:18.583Z,0.40
2018-02-23T09:14:47.340Z,0.70
2018-02-23T09:17:16.095Z,0.80
2018-02-23T09:19:44.848Z,1.10
2018-02-23T09:22:13.612Z,1.00
2018-02-23T09:24:43.151Z,1.40
2018-02-23T09:27:11.930Z,1.30
2018-02-23T09:29:40.697Z,1.50
2018-02-23T09:32:21.386Z,1.50
2018-02-23T09:34:50.904Z,1.30
2018-02-23T09:37:19.668Z,1.30
2018-02-23T09:39:50.124Z,0.50
2018-02-23T09:42:18.905Z,0.50
2018-02-23T09:44:47.660Z,0.60
2018-02-23T09:47:16.423Z,0.80
2018-02-23T09:49:45.197Z,1.00
2018-02-23T09:52:13.973Z,1.20
2018-02-23T09:54:42.736Z,1.00
2018-02-23T09:57:12.099Z,1.00
2018-02-23T09:59:41.220Z,0.80
2018-02-23T10:02:09.979Z,0.90
2018-02-23T10:04:38.740Z,1.10
2018-02-23T10:07:07.499Z,1.40
2018-02-23T10:09:36.252Z,1.60
2018-02-23T10:12:04.991Z,1.80
2018-02-23T10:14:33.750Z,2.00
2018-02-23T10:17:02.514Z,1.90
2018-02-23T10:19:31.304Z,1.80
2018-02-23T10:22:00.060Z,2.00
2018-02-23T10:24:28.831Z,2.20
2018-02-23T10:26:58.132Z,2.40
2018-02-23T10:29:27.672Z,2.50
2018-02-23T10:32:01.744Z,2.50
2018-02-23T10:34:30.340Z,2.70
2018-02-23T10:36:59.883Z,2.10
2018-02-23T10:39:28.447Z,2.10
2018-02-23T10:41:57.020Z,2.50
2018-02-23T10:44:26.493Z,2.90
2018-02-23T10:46:55.255Z,3.20
2018-02-23T10:49:23.835Z,3.00
2018-02-23T10:51:52.425Z,3.10
2018-02-23T10:54:21.045Z,3.20
2018-02-23T10:56:50.583Z,3.40
2018-02-23T10:59:19.164Z,3.40
2018-02-23T11:01:47.742Z,3.50
2018-02-23T11:04:17.075Z,3.60
2018-02-23T11:06:45.679Z,3.60
2018-02-23T11:09:14.452Z,3.70
2018-02-23T11:11:43.212Z,3.90
2018-02-23T11:14:11.963Z,3.90
2018-02-23T11:16:40.729Z,4.00
2018-02-23T11:19:09.161Z,4.10
2018-02-23T11:21:37.937Z,4.10
2018-02-23T11:24:07.462Z,4.30
2018-02-23T11:26:36.057Z,4.30
2018-02-23T11:29:05.447Z,4.00
2018-02-23T11:31:34.238Z,3.70
2018-02-23T11:34:03.764Z,3.90
2018-02-23T11:36:32.560Z,3.90
2018-02-23T11:39:05.489Z,4.10
2018-02-23T11:41:34.248Z,4.10
2018-02-23T11:44:03.016Z,4.10
2018-02-23T11:46:31.785Z,4.10
2018-02-23T11:49:01.315Z,4.10
2018-02-23T11:51:30.074Z,4.10
2018-02-23T11:53:59.443Z,4.20
2018-02-23T11:56:28.205Z,4.10
2018-02-23T11:58:56.973Z,4.40
2018-02-23T12:01:25.750Z,4.60
2018-02-23T12:03:54.514Z,4.60
2018-02-23T12:06:23.280Z,4.60
2018-02-23T12:08:52.027Z,4.60
2018-02-23T12:11:21.026Z,4.60
2018-02-23T12:13:49.793Z,4.70
2018-02-23T12:16:19.147Z,4.90
2018-02-23T12:18:47.911Z,5.10
2018-02-23T12:21:16.690Z,5.10
2018-02-23T12:23:45.456Z,4.60
2018-02-23T12:26:14.989Z,4.80
2018-02-23T12:28:43.766Z,4.80
2018-02-23T12:31:12.530Z,4.70
2018-02-23T12:33:42.458Z,4.10
2018-02-23T12:36:12.250Z,4.00
2018-02-23T12:38:41.011Z,4.00
2018-02-23T12:41:09.780Z,3.60
2018-02-23T12:43:38.531Z,3.30
2018-02-23T12:46:07.403Z,3.10
2018-02-23T12:48:36.163Z,3.10
2018-02-23T12:51:05.377Z,2.80
2018-02-23T12:53:34.143Z,2.80
2018-02-23T12:56:02.898Z,2.70
2018-02-23T12:58:32.434Z,2.60
2018-02-23T13:01:01.214Z,2.60
2018-02-23T13:03:29.988Z,2.60
2018-02-23T13:05:58.763Z,2.60
2018-02-23T13:08:28.287Z,2.40
2018-02-23T13:10:57.043Z,2.30
2018-02-23T13:13:25.813Z,2.30
2018-02-23T13:15:54.856Z,2.30
2018-02-23T13:18:24.531Z,2.20
2018-02-23T13:20:53.297Z,2.10
2018-02-23T13:23:22.303Z,2.00
2018-02-23T13:25:51.073Z,2.00
2018-02-23T13:28:25.381Z,2.10
2018-02-23T13:30:54.404Z,1.90
2018-02-23T13:33:23.774Z,2.00
2018-02-23T13:35:53.128Z,2.10
2018-02-23T13:38:22.473Z,1.70
2018-02-23T13:40:56.671Z,1.70
2018-02-23T13:43:26.230Z,1.70
2018-02-23T13:45:54.804Z,1.70
2018-02-23T13:48:23.992Z,1.30
2018-02-23T13:50:54.023Z,1.20
2018-02-23T13:53:22.613Z,1.30
2018-02-23T13:55:51.406Z,1.60
2018-02-23T13:58:20.180Z,1.20
2018-02-23T14:00:49.723Z,1.00
2018-02-23T14:03:19.263Z,1.10
2018-02-23T14:05:48.044Z,1.00
2018-02-23T14:08:16.809Z,1.10
2018-02-23T14:10:46.351Z,1.30
2018-02-23T14:13:15.130Z,1.20
2018-02-23T14:15:43.904Z,1.30
2018-02-23T14:18:13.533Z,1.20
2018-02-23T14:20:42.295Z,1.20
2018-02-23T14:23:11.827Z,1.20
2018-02-23T14:25:41.350Z,1.20
2018-02-23T14:28:10.118Z,1.20
2018-02-23T14:30:38.940Z,1.30
2018-02-23T14:33:08.649Z,1.30
2018-02-23T14:35:38.112Z,1.30
2018-02-23T14:38:06.881Z,1.30
2018-02-23T14:40:35.696Z,1.40
2018-02-23T14:43:04.164Z,1.60
2018-02-23T14:45:32.596Z,1.50
2018-02-23T14:48:01.370Z,1.30
2018-02-23T14:50:41.335Z,1.30
2018-02-23T14:53:10.160Z,1.50
2018-02-23T14:55:38.916Z,1.60
2018-02-23T14:58:07.692Z,1.80
2018-02-23T15:00:36.757Z,2.40
2018-02-23T15:03:06.294Z,2.80
2018-02-23T15:05:37.253Z,3.50
2018-02-23T15:08:06.048Z,3.50
2018-02-23T15:10:34.814Z,4.20
2018-02-23T15:13:03.631Z,4.30
2018-02-23T15:15:32.406Z,4.70
2018-02-23T15:18:01.174Z,5.50
2018-02-23T15:20:29.936Z,5.80
2018-02-23T15:22:59.472Z,6.20
2018-02-23T15:25:28.236Z,6.20
2018-02-23T15:27:57.773Z,6.00
2018-02-23T15:30:37.700Z,6.00
2018-02-23T15:33:07.260Z,5.50
2018-02-23T15:35:37.659Z,5.50
2018-02-23T15:38:06.450Z,5.50
2018-02-23T15:40:35.728Z,5.20
2018-02-23T15:43:04.500Z,4.70
2018-02-23T15:45:33.085Z,4.40
2018-02-23T15:48:24.017Z,3.60
2018-02-23T15:50:58.296Z,3.50
2018-02-23T15:53:26.895Z,3.60
2018-02-23T15:55:56.241Z,4.00
2018-02-23T15:58:30.635Z,4.00
2018-02-23T16:00:59.224Z,3.60
2018-02-23T16:03:27.808Z,3.00
2018-02-23T16:05:56.390Z,2.30
2018-02-23T16:08:25.547Z,2.00
2018-02-23T16:10:54.313Z,1.70
2018-02-23T16:13:22.897Z,1.60
2018-02-23T16:15:51.657Z,1.10
2018-02-23T16:18:19.909Z,0.80
2018-02-23T16:20:49.444Z,0.80
2018-02-23T16:23:18.214Z,0.80
2018-02-23T16:25:47.748Z,0.40
2018-02-23T16:28:16.554Z,0.40
2018-02-23T16:30:45.158Z,0.30
2018-02-23T16:33:13.935Z,0.20
2018-02-23T16:35:42.700Z,-0.10
2018-02-23T16:38:11.293Z,-0.20
2018-02-23T16:40:40.060Z,0.10
2018-02-23T16:43:08.815Z,0.60
2018-02-23T16:45:37.587Z,0.10
2018-02-23T16:48:06.430Z,-0.30
2018-02-23T16:50:35.197Z,-0.20
2018-02-23T16:53:04.410Z,-0.60
2018-02-23T16:55:33.760Z,-0.70
2018-02-23T16:58:02.542Z,-0.70
2018-02-23T17:00:31.323Z,-1.10
2018-02-23T17:03:00.697Z,-1.10
2018-02-23T17:05:29.475Z,-1.20
2018-02-23T17:07:58.604Z,-1.20
2018-02-23T17:10:27.374Z,-1.10
2018-02-23T17:12:56.161Z,-1.10
2018-02-23T17:15:24.925Z,-1.20
2018-02-23T17:17:53.686Z,-1.20
2018-02-23T17:20:22.474Z,-1.30
2018-02-23T17:22:51.244Z,-1.20
2018-02-23T17:25:20.018Z,-1.10
2018-02-23T17:27:48.767Z,-1.20
2018-02-23T17:30:17.541Z,-1.50
2018-02-23T17:32:46.312Z,-1.50
2018-02-23T17:35:15.076Z,-1.40
2018-02-23T17:37:43.836Z,-1.30
2018-02-23T17:40:13.368Z,-1.30
2018-02-23T17:42:42.137Z,-1.30
2018-02-23T17:45:11.668Z,-1.50
2018-02-23T17:47:40.438Z,-1.50
2018-02-23T17:50:09.977Z,-1.70
2018-02-23T17:52:38.740Z,-1.70
2018-02-23T17:55:07.503Z,-1.60
2018-02-23T17:57:37.039Z,-1.70
2018-02-23T18:00:05.802Z,-1.80
2018-02-23T18:02:34.236Z,-1.70
2018-02-23T18:05:03.007Z,-1.60
2018-02-23T18:07:31.768Z,0.20
2018-02-23T18:10:01.299Z,1.60
2018-02-23T18:12:30.065Z,1.50
2018-02-23T18:14:59.585Z,0.40
2018-02-23T18:17:28.404Z,0.30
2018-02-23T18:19:57.176Z,-0.30
2018-02-23T18:22:25.947Z,-0.40
2018-02-23T18:24:55.513Z,-0.80
2018-02-23T18:27:24.263Z,-0.80
2018-02-23T18:29:53.033Z,-1.00
2018-02-23T18:32:21.622Z,-1.10
2018-02-23T18:34:51.135Z,-1.30
2018-02-23T18:37:19.571Z,-1.40
2018-02-23T18:39:48.165Z,-1.40
2018-02-23T18:42:16.930Z,-1.50
2018-02-23T18:44:45.709Z,-1.60
2018-02-23T18:47:14.481Z,-1.60
2018-02-23T18:49:43.248Z,-1.50
2018-02-23T18:52:12.761Z,-1.70
2018-02-23T18:54:41.538Z,-1.70
2018-02-23T18:57:11.088Z,-1.70
2018-02-23T18:59:39.860Z,-1.70
2018-02-23T19:02:08.292Z,-1.80
2018-02-23T19:04:36.865Z,-1.70
2018-02-23T19:07:05.655Z,-1.80
2018-02-23T19:09:34.244Z,-1.80
2018-02-23T19:12:03.014Z,-1.90
2018-02-23T19:14:31.587Z,-1.90
2018-02-23T19:17:00.153Z,-2.00
2018-02-23T19:19:29.132Z,-2.00
2018-02-23T19:21:57.919Z,-2.00
2018-02-23T19:24:26.688Z,-2.00
2018-02-23T19:26:56.220Z,-2.10
2018-02-23T19:29:25.190Z,-2.10
2018-02-23T19:31:53.953Z,-2.10
2018-02-23T19:34:22.727Z,-2.20
2018-02-23T19:36:51.492Z,-2.20
2018-02-23T19:39:21.024Z,-2.20
2018-02-23T19:41:49.782Z,-2.20
2018-02-23T19:44:18.557Z,-2.30
2018-02-23T19:46:47.325Z,-2.30
2018-02-23T19:49:16.084Z,-2.30
2018-02-23T19:51:44.923Z,-2.30
2018-02-23T19:54:13.897Z,-2.30
2018-02-23T19:56:42.656Z,-2.40
2018-02-23T19:59:12.740Z,-2.30
2018-02-23T20:01:41.504Z,-2.30
2018-02-23T20:04:11.029Z,-2.30
2018-02-23T20:06:39.797Z,-2.30
2018-02-23T20:09:09.328Z,-2.30
2018-02-23T20:11:38.096Z,-2.30
2018-02-23T20:14:10.986Z,-2.30
2018-02-23T20:16:40.702Z,-2.30
2018-02-23T20:19:11.169Z,-2.30
2018-02-23T20:21:39.954Z,-2.30
2018-02-23T20:24:11.141Z,-2.30
2018-02-23T20:26:41.249Z,-2.30
2018-02-23T20:29:18.488Z,-2.30
2018-02-23T20:31:48.723Z,-2.30
2018-02-23T20:34:17.178Z,-2.30
2018-02-23T20:36:46.869Z,-2.30
2018-02-23T20:39:15.632Z,-2.40
2018-02-23T20:41:44.407Z,-2.40
2018-02-23T20:44:13.174Z,-2.40
2018-02-23T20:46:42.801Z,-2.50
2018-02-23T20:49:11.567Z,-2.50
2018-02-23T20:51:40.452Z,-2.60
2018-02-23T20:54:09.229Z,-2.60
2018-02-23T20:56:38.751Z,-2.70
2018-02-23T20:59:07.530Z,-2.70
2018-02-23T21:01:37.057Z,-2.70
2018-02-23T21:04:05.814Z,-2.80
2018-02-23T21:06:35.344Z,-2.70
2018-02-23T21:09:04.221Z,-2.80
2018-02-23T21:11:32.994Z,-2.80
2018-02-23T21:14:02.529Z,-2.80
2018-02-23T21:16:33.817Z,-2.80
2018-02-23T21:19:02.608Z,-2.90
2018-02-23T21:21:31.404Z,-2.90
2018-02-23T21:24:00.412Z,-2.90
2018-02-23T21:26:29.671Z,-2.90
2018-02-23T21:29:00.332Z,-2.90
2018-02-23T21:31:33.777Z,-3.00
2018-02-23T21:34:13.772Z,-3.00
2018-02-23T21:36:49.111Z,-3.00
2018-02-23T21:39:18.479Z,-3.00
2018-02-23T21:42:01.209Z,-3.00
2018-02-23T21:44:47.820Z,-3.00
2018-02-23T21:47:18.248Z,-3.00
2018-02-23T21:49:51.770Z,-3.10
2018-02-23T21:54:59.206Z,-3.10
2018-02-23T21:57:28.207Z,-3.20
2018-02-23T21:59:57.556Z,-3.40
2018-02-23T22:02:26.419Z,-3.40
2018-02-23T22:04:55.004Z,-3.40
2018-02-23T22:07:23.768Z,-3.50
2018-02-23T22:09:53.310Z,-3.50
2018-02-23T22:12:22.082Z,-3.50
2018-02-23T22:14:50.861Z,-3.50
2018-02-23T22:17:20.392Z,-3.50
2018-02-23T22:19:49.168Z,-3.50
2018-02-23T22:22:17.941Z,-3.50
2018-02-23T22:24:47.481Z,-3.40
2018-02-23T22:27:16.244Z,-3.40
2018-02-23T22:29:45.591Z,-3.40
2018-02-23T22:32:14.177Z,-3.50
2018-02-23T22:34:42.948Z,-3.50
2018-02-23T22:37:11.719Z,-3.50
2018-02-23T22:39:40.304Z,-3.50
2018-02-23T22:42:09.071Z,-3.50
2018-02-23T22:44:37.829Z,-3.60
2018-02-23T22:47:06.604Z,-3.60
2018-02-23T22:49:35.183Z,-3.60
2018-02-23T22:52:04.025Z,-3.70
2018-02-23T22:54:32.788Z,-3.80
2018-02-23T22:57:01.552Z,-3.80
2018-02-23T22:59:30.320Z,-3.80
2018-02-23T23:01:59.082Z,-3.80
2018-02-23T23:04:29.328Z,-3.80
2018-02-23T23:06:58.863Z,-3.90
2018-02-23T23:09:27.627Z,-3.90
2018-02-23T23:11:56.377Z,-3.90
2018-02-23T23:14:25.141Z,-4.00
2018-02-23T23:16:53.915Z,-4.10
2018-02-23T23:19:22.671Z,-4.10
2018-02-23T23:21:52.196Z,-4.00
2018-02-23T23:24:20.968Z,-4.10
2018-02-23T23:26:50.493Z,-4.00
2018-02-23T23:29:19.264Z,-4.00
2018-02-23T23:31:48.789Z,-4.00
2018-02-23T23:34:17.564Z,-4.00
2018-02-23T23:36:47.097Z,-4.10
2018-02-23T23:39:15.854Z,-4.10
2018-02-23T23:41:45.388Z,-4.00
2018-02-23T23:44:14.152Z,-4.10
2018-02-23T23:46:43.339Z,-4.10
2018-02-23T23:49:12.860Z,-4.00
2018-02-23T23:51:42.399Z,-4.10
2018-02-23T23:54:11.160Z,-4.10
2018-02-23T23:56:39.915Z,-4.10
2018-02-23T23:59:08.332Z,-4.10
